Time;durP1;ratioP1;P1;durP2;ratioP2;P2;SDS_P1;SDS_P2;PMS_P1;PMS_P2;Temp;Humidity;BMP_temperature;BMP_pressure;BME280_temperature;BME280_humidity;BME280_pressure;Samples;Min_cycle;Max_cycle;Signal;HPM_P1;HPM_P2
2023/02/17 00:00:39;;;;;;;;;;;;;;;28.11;58.46;101139.66;5095467;27;66298;-40
2023/02/17 00:03:10;;;;;;;;;;;;;;;28.12;58.82;101141.34;5093080;27;69186;-41
2023/02/17 00:05:40;;;;;;;;;;;;;;;28.16;59.12;101143.44;5077775;27;66152;-39
2023/02/17 00:08:11;;;;;;;;;;;;;;;28.20;59.42;101152.00;5095825;27;69807;-38
2023/02/17 00:10:41;;;;;;;;;;;;;;;28.18;59.25;101146.78;5083521;27;65365;-39
2023/02/17 00:13:11;;;;;;;;;;;;;;;28.19;58.45;101145.72;5095120;27;70502;-40
2023/02/17 00:15:41;;;;;;;;;;;;;;;28.21;59.69;101151.78;5092843;27;66634;-41
2023/02/17 00:18:11;;;;;;;;;;;;;;;28.23;59.73;101152.41;5095782;27;70751;-40
2023/02/17 00:20:41;;;;;;;;;;;;;;;28.25;59.62;101157.59;5092691;27;65745;-40
2023/02/17 00:23:11;;;;;;;;;;;;;;;28.28;59.96;101159.94;5090544;27;69955;-39
2023/02/17 00:25:42;;;;;;;;;;;;;;;28.30;59.79;101160.56;5074090;27;65631;-39
2023/02/17 00:28:12;;;;;;;;;;;;;;;28.31;59.50;101167.63;5084145;27;70281;-38
2023/02/17 00:30:42;;;;;;;;;;;;;;;28.34;59.68;101171.81;5073853;27;65664;-40
2023/02/17 00:33:12;;;;;;;;;;;;;;;28.40;58.96;101182.63;5062158;28;69723;-42
2023/02/17 00:35:42;;;;;;;;;;;;;;;28.44;59.21;101170.44;5087706;27;65893;-40
2023/02/17 00:38:12;;;;;;;;;;;;;;;28.44;59.20;101173.13;5085920;27;69933;-40
2023/02/17 00:40:44;;;;;;;;;;;;;;;28.41;58.18;101173.50;5090349;27;66206;-40
2023/02/17 00:43:14;;;;;;;;;;;;;;;28.40;57.42;101181.81;5090275;27;68982;-38
2023/02/17 00:45:44;;;;;;;;;;;;;;;28.39;57.04;101180.97;5079372;27;66070;-39
2023/02/17 00:48:14;;;;;;;;;;;;;;;28.41;56.50;101180.75;5088081;27;68995;-41
2023/02/17 00:50:45;;;;;;;;;;;;;;;28.42;56.66;101180.63;5100308;27;66782;-40
2023/02/17 00:53:16;;;;;;;;;;;;;;;28.44;56.46;101166.91;5085928;27;70612;-39
2023/02/17 00:55:46;;;;;;;;;;;;;;;28.45;56.28;101174.81;5056462;27;66006;-41
2023/02/17 00:58:17;;;;;;;;;;;;;;;28.47;55.88;101177.31;5098284;27;69983;-40
2023/02/17 01:00:47;;;;;;;;;;;;;;;28.47;55.48;101183.56;5096885;27;66053;-40
2023/02/17 01:03:18;;;;;;;;;;;;;;;28.47;55.40;101188.97;5100643;27;69772;-39
2023/02/17 01:05:48;;;;;;;;;;;;;;;28.37;55.59;101164.16;5100801;27;66571;-41
2023/02/17 01:08:19;;;;;;;;;;;;;;;28.50;55.28;101188.56;5081785;27;70272;-41
2023/02/17 01:10:49;;;;;;;;;;;;;;;28.51;55.15;101184.00;5099142;27;66788;-40
2023/02/17 01:13:19;;;;;;;;;;;;;;;28.52;54.99;101178.38;5096824;27;69761;-41
2023/02/17 01:15:50;;;;;;;;;;;;;;;28.53;54.91;101176.53;5094177;27;64705;-39
2023/02/17 01:18:22;;;;;;;;;;;;;;;28.53;54.46;101176.53;5071544;27;69150;-40
2023/02/17 01:20:53;;;;;;;;;;;;;;;28.54;54.50;101180.91;5094896;27;66292;-39
2023/02/17 01:23:23;;;;;;;;;;;;;;;28.57;54.41;101176.97;5099271;27;70102;-39
2023/02/17 01:25:53;;;;;;;;;;;;;;;28.57;54.17;101182.38;5085839;27;65734;-41
2023/02/17 01:28:23;;;;;;;;;;;;;;;28.58;53.92;101182.16;5089544;27;70139;-41
2023/02/17 01:30:53;;;;;;;;;;;;;;;28.60;53.88;101190.06;5072708;27;65360;-41
2023/02/17 01:33:24;;;;;;;;;;;;;;;28.61;53.81;101180.94;5079236;27;69780;-40
2023/02/17 01:35:54;;;;;;;;;;;;;;;28.62;53.95;101179.91;5091587;27;65657;-42
2023/02/17 01:38:24;;;;;;;;;;;;;;;28.63;53.83;101181.56;5093673;27;68992;-40
2023/02/17 01:40:54;;;;;;;;;;;;;;;28.66;53.41;101181.19;5075583;27;65695;-38
2023/02/17 01:43:25;;;;;;;;;;;;;;;28.67;53.92;101189.09;5077064;27;69842;-39
2023/02/17 01:45:59;;;;;;;;;;;;;;;28.68;53.41;101189.91;5080935;27;65027;-41
2023/02/17 01:48:50;;;;;;;;;;;;;;;28.69;53.73;101194.28;5096041;27;69332;-42
2023/02/17 01:51:25;;;;;;;;;;;;;;;28.70;53.27;101198.66;5094957;27;66082;-39
2023/02/17 01:54:03;;;;;;;;;;;;;;;28.72;53.66;101196.56;5090774;27;68173;-40
2023/02/17 01:56:35;;;;;;;;;;;;;;;28.73;53.09;101206.38;5091077;27;65691;-41
2023/02/17 01:59:09;;;;;;;;;;;;;;;28.76;53.06;101205.13;5076735;27;69719;-39
2023/02/17 02:01:39;;;;;;;;;;;;;;;28.77;53.28;101204.91;5091726;27;67011;-41
2023/02/17 02:04:14;;;;;;;;;;;;;;;28.79;53.56;101204.72;5091991;27;70719;-39
2023/02/17 02:06:44;;;;;;;;;;;;;;;28.81;52.97;101211.59;5080744;27;66663;-39
2023/02/17 02:09:29;;;;;;;;;;;;;;;28.82;53.28;101207.88;5076819;27;69895;-39
2023/02/17 02:12:00;;;;;;;;;;;;;;;28.83;52.88;101203.28;5090648;27;65746;-39
2023/02/17 02:14:33;;;;;;;;;;;;;;;28.84;52.78;101205.81;5092502;27;70746;-41
2023/02/17 02:17:10;;;;;;;;;;;;;;;28.87;53.18;101213.50;5073605;27;66414;-39
2023/02/17 02:20:02;;;;;;;;;;;;;;;28.71;53.06;101179.56;5092364;27;67630;-39
2023/02/17 02:22:50;;;;;;;;;;;;;;;28.91;52.78;101212.06;5094510;27;66383;-39
2023/02/17 02:25:39;;;;;;;;;;;;;;;28.94;52.96;101211.66;5092139;27;69714;-42
2023/02/17 02:28:27;;;;;;;;;;;;;;;28.95;52.86;101213.34;5081446;27;66922;-40
2023/02/17 02:31:16;;;;;;;;;;;;;;;28.98;52.98;101208.59;5091944;27;70167;-41
2023/02/17 02:33:50;;;;;;;;;;;;;;;29.01;52.41;101216.28;5082023;27;65611;-39
2023/02/17 02:36:44;;;;;;;;;;;;;;;29.03;52.43;101214.19;5075162;27;70734;-40
2023/02/17 02:39:19;;;;;;;;;;;;;;;29.05;52.90;101214.88;5083781;27;66837;-39
2023/02/17 02:41:52;;;;;;;;;;;;;;;29.07;52.49;101218.22;5076653;27;69536;-39
2023/02/17 02:44:22;;;;;;;;;;;;;;;29.09;52.69;101216.16;5092037;27;67642;-39
2023/02/17 02:47:16;;;;;;;;;;;;;;;29.11;52.72;101216.75;5090443;27;70205;-38
2023/02/17 02:49:46;;;;;;;;;;;;;;;29.13;52.63;101215.53;5062337;27;66964;-39
2023/02/17 02:52:47;;;;;;;;;;;;;;;29.16;52.27;101214.31;5076827;27;69316;-40
2023/02/17 02:55:22;;;;;;;;;;;;;;;29.17;52.22;101210.59;5063321;27;66457;-39
2023/02/17 02:58:05;;;;;;;;;;;;;;;29.20;52.23;101210.19;5071158;27;70199;-39
2023/02/17 03:00:47;;;;;;;;;;;;;;;29.23;52.46;101204.38;5081544;27;66990;-39
2023/02/17 03:03:41;;;;;;;;;;;;;;;29.26;52.16;101206.66;5092871;27;70672;-39
2023/02/17 03:06:12;;;;;;;;;;;;;;;29.28;52.52;101204.59;5070676;27;66198;-39
2023/02/17 03:08:48;;;;;;;;;;;;;;;29.30;52.47;101205.22;5091717;27;69391;-39
2023/02/17 03:11:31;;;;;;;;;;;;;;;29.32;52.39;101203.16;5079883;27;66102;-41
2023/02/17 03:14:04;;;;;;;;;;;;;;;29.35;51.83;101196.50;5080451;27;70552;-39
2023/02/17 03:16:35;;;;;;;;;;;;;;;29.37;52.39;101200.69;5080982;27;67085;-41
2023/02/17 03:19:07;;;;;;;;;;;;;;;29.40;52.23;101194.03;5099114;27;69956;-39
2023/02/17 03:21:49;;;;;;;;;;;;;;;29.42;52.49;101191.97;5048197;27;66543;-38
2023/02/17 03:24:20;;;;;;;;;;;;;;;29.45;52.17;101188.00;5077932;27;69657;-39
2023/02/17 03:26:50;;;;;;;;;;;;;;;29.48;51.59;101193.03;5079139;27;66428;-39
2023/02/17 03:29:20;;;;;;;;;;;;;;;29.50;52.09;101194.47;5092130;27;69476;-39
2023/02/17 03:31:50;;;;;;;;;;;;;;;29.51;51.65;101179.94;5075340;27;66195;-40
2023/02/17 03:34:21;;;;;;;;;;;;;;;29.55;51.62;101174.94;5084418;27;69400;-41
2023/02/17 03:36:51;;;;;;;;;;;;;;;29.58;51.42;101174.53;5087763;27;65366;-40
2023/02/17 03:39:21;;;;;;;;;;;;;;;29.60;51.46;101167.06;5094348;27;69977;-39
2023/02/17 03:41:51;;;;;;;;;;;;;;;29.62;51.67;101159.59;5097406;27;66673;-39
2023/02/17 03:44:21;;;;;;;;;;;;;;;29.64;51.48;101152.13;5107931;27;69747;-41
2023/02/17 03:46:51;;;;;;;;;;;;;;;29.68;51.53;101153.38;5091521;27;65531;-39
2023/02/17 03:49:21;;;;;;;;;;;;;;;29.70;51.41;101143.22;5095034;27;70389;-43
2023/02/17 03:51:52;;;;;;;;;;;;;;;29.71;51.56;101144.84;5088558;27;66629;-41
2023/02/17 03:54:22;;;;;;;;;;;;;;;29.75;51.43;101143.38;5072039;27;70840;-39
2023/02/17 03:56:52;;;;;;;;;;;;;;;29.78;51.42;101142.16;5094977;27;66532;-39
2023/02/17 03:59:22;;;;;;;;;;;;;;;29.80;50.96;101140.91;5094030;27;69883;-41
2023/02/17 04:01:52;;;;;;;;;;;;;;;29.84;51.04;101146.75;5090129;27;66672;-40
2023/02/17 04:04:23;;;;;;;;;;;;;;;29.88;50.94;101136.34;5095119;27;70406;-40
2023/02/17 04:06:54;;;;;;;;;;;;;;;29.90;50.80;101128.88;5071661;27;65375;-41
2023/02/17 04:09:24;;;;;;;;;;;;;;;29.94;50.60;101119.28;5090791;27;69725;-39
2023/02/17 04:11:54;;;;;;;;;;;;;;;29.95;50.59;101113.69;5088723;27;66709;-41
2023/02/17 04:14:24;;;;;;;;;;;;;;;29.98;50.83;101115.13;5090934;27;70195;-39
2023/02/17 04:16:54;;;;;;;;;;;;;;;30.00;50.56;101108.44;5094198;27;65549;-47
2023/02/17 04:19:25;;;;;;;;;;;;;;;30.03;50.55;101101.78;5094795;27;70139;-40
2023/02/17 04:21:55;;;;;;;;;;;;;;;30.06;50.30;101101.38;5091214;27;65830;-41
2023/02/17 04:24:25;;;;;;;;;;;;;;;30.08;50.90;101104.69;5091456;27;70013;-42
2023/02/17 04:26:55;;;;;;;;;;;;;;;30.11;50.76;101098.03;5092297;27;65568;-40
2023/02/17 04:29:25;;;;;;;;;;;;;;;30.12;50.71;101089.72;5092540;27;69289;-38
2023/02/17 04:31:57;;;;;;;;;;;;;;;30.14;50.24;101087.63;5079310;27;65046;-39
2023/02/17 04:34:27;;;;;;;;;;;;;;;30.16;50.39;101080.13;5083379;27;69732;-39
2023/02/17 04:36:57;;;;;;;;;;;;;;;30.19;50.17;101074.31;5089248;27;66653;-39
2023/02/17 04:39:27;;;;;;;;;;;;;;;30.21;50.64;101060.56;5085575;27;69868;-39
2023/02/17 04:41:58;;;;;;;;;;;;;;;30.24;50.25;101071.00;5092924;27;66656;-40
2023/02/17 04:44:29;;;;;;;;;;;;;;;30.24;50.50;101061.00;5098980;27;70074;-41
2023/02/17 04:46:59;;;;;;;;;;;;;;;30.26;50.00;101053.50;5081620;27;65154;-41
2023/02/17 04:49:29;;;;;;;;;;;;;;;30.28;50.40;101051.44;5097578;27;68887;-39
2023/02/17 04:51:59;;;;;;;;;;;;;;;30.31;49.75;101049.31;5086280;27;66431;-39
2023/02/17 04:54:29;;;;;;;;;;;;;;;30.32;50.37;101034.78;5081596;27;69944;-40
2023/02/17 04:56:59;;;;;;;;;;;;;;;30.35;49.87;101037.06;5093137;27;66030;-40
2023/02/17 04:59:29;;;;;;;;;;;;;;;30.36;49.61;101031.41;5092999;27;69647;-41
2023/02/17 05:02:00;;;;;;;;;;;;;;;30.38;49.47;101023.09;5100494;27;66731;-39
2023/02/17 05:04:30;;;;;;;;;;;;;;;30.40;49.44;101004.78;5086233;27;70375;-41
2023/02/17 05:07:00;;;;;;;;;;;;;;;30.43;49.41;101010.56;5094276;27;66536;-41
2023/02/17 05:09:31;;;;;;;;;;;;;;;30.44;49.43;101012.22;5077374;27;70174;-39
2023/02/17 05:12:01;;;;;;;;;;;;;;;30.46;49.47;101007.44;5077760;27;65903;-41
2023/02/17 05:14:32;;;;;;;;;;;;;;;30.47;49.51;101000.97;5095408;27;69052;-39
2023/02/17 05:17:02;;;;;;;;;;;;;;;30.49;49.64;100998.06;5081126;27;66758;-39
2023/02/17 05:19:33;;;;;;;;;;;;;;;30.51;49.32;100993.28;5100698;27;70116;-39
2023/02/17 05:22:03;;;;;;;;;;;;;;;30.54;49.52;100983.88;5099710;27;66817;-39
2023/02/17 05:24:33;;;;;;;;;;;;;;;30.55;49.54;100980.94;5102592;27;69888;-40
2023/02/17 05:27:06;;;;;;;;;;;;;;;30.57;49.56;100984.28;5095611;27;66308;-39
2023/02/17 05:29:37;;;;;;;;;;;;;;;30.59;49.29;100971.38;5092475;27;70068;-39
2023/02/17 05:32:07;;;;;;;;;;;;;;;30.61;49.21;100968.44;5093694;27;66450;-39
2023/02/17 05:34:37;;;;;;;;;;;;;;;30.64;49.59;100962.56;5091937;27;70261;-39
2023/02/17 05:37:07;;;;;;;;;;;;;;;30.64;49.84;100957.97;5092775;27;65939;-39
2023/02/17 05:39:37;;;;;;;;;;;;;;;30.66;49.66;100950.47;5095053;27;70027;-41
2023/02/17 05:42:07;;;;;;;;;;;;;;;30.70;49.44;100950.88;5091804;27;66251;-39
2023/02/17 05:44:37;;;;;;;;;;;;;;;30.71;49.52;100947.13;5093787;27;69808;-40
2023/02/17 05:47:07;;;;;;;;;;;;;;;30.71;49.44;100939.84;5093379;27;66636;-39
2023/02/17 05:49:38;;;;;;;;;;;;;;;30.75;49.11;100942.09;5093111;27;69687;-40
2023/02/17 05:52:08;;;;;;;;;;;;;;;30.77;49.28;100931.91;5092141;27;64423;-41
2023/02/17 05:54:38;;;;;;;;;;;;;;;30.79;49.02;100922.50;5090770;27;70634;-41
2023/02/17 05:57:08;;;;;;;;;;;;;;;30.81;49.08;100925.00;5090368;27;66954;-41
2023/02/17 05:59:38;;;;;;;;;;;;;;;30.83;49.24;100912.09;5092770;27;69899;-38
2023/02/17 06:02:08;;;;;;;;;;;;;;;30.85;49.31;100905.41;5097766;27;66021;-39
2023/02/17 06:04:38;;;;;;;;;;;;;;;30.88;48.78;100904.13;5086784;27;70065;-40
2023/02/17 06:07:08;;;;;;;;;;;;;;;30.90;48.91;100896.63;5095824;27;65778;-41
2023/02/17 06:09:38;;;;;;;;;;;;;;;30.92;48.77;100891.78;5084141;27;69985;-40
2023/02/17 06:12:09;;;;;;;;;;;;;;;30.94;49.04;100897.84;5086606;27;66005;-47
2023/02/17 06:14:39;;;;;;;;;;;;;;;30.96;48.67;100890.31;5100280;27;70322;-40
2023/02/17 06:17:10;;;;;;;;;;;;;;;30.98;48.80;100893.66;5090409;27;66719;-42
2023/02/17 06:19:40;;;;;;;;;;;;;;;31.02;49.17;100886.72;5100725;27;69769;-38
2023/02/17 06:22:10;;;;;;;;;;;;;;;31.04;49.17;100881.91;5096192;27;66424;-39
2023/02/17 06:24:40;;;;;;;;;;;;;;;31.06;48.67;100878.97;5093406;27;69920;-40
2023/02/17 06:27:10;;;;;;;;;;;;;;;31.07;48.48;100870.63;5094842;27;66896;-40
2023/02/17 06:29:40;;;;;;;;;;;;;;;31.11;48.86;100863.72;5086476;27;69614;-40
2023/02/17 06:32:11;;;;;;;;;;;;;;;31.14;48.72;100857.03;5095602;27;66516;-39
2023/02/17 06:34:41;;;;;;;;;;;;;;;31.17;48.59;100862.00;5082345;27;69343;-41
2023/02/17 06:37:11;;;;;;;;;;;;;;;31.21;48.80;100854.25;5097470;27;65304;-39
2023/02/17 06:39:42;;;;;;;;;;;;;;;31.23;48.49;100846.72;5079016;27;69015;-40
2023/02/17 06:42:12;;;;;;;;;;;;;;;31.26;48.68;100846.28;5091859;27;66121;-40
2023/02/17 06:44:42;;;;;;;;;;;;;;;31.28;48.26;100827.91;5084836;27;70026;-39
2023/02/17 06:47:12;;;;;;;;;;;;;;;31.31;48.47;100827.47;5068590;27;65607;-42
2023/02/17 06:49:42;;;;;;;;;;;;;;;31.34;48.64;100821.59;5094917;27;70699;-40
2023/02/17 06:52:12;;;;;;;;;;;;;;;31.36;48.13;100820.34;5085660;27;66207;-42
2023/02/17 06:54:42;;;;;;;;;;;;;;;31.39;48.39;100808.22;5073314;27;70204;-41
2023/02/17 06:57:13;;;;;;;;;;;;;;;31.43;48.64;100808.63;5093882;27;66853;-40
2023/02/17 06:59:43;;;;;;;;;;;;;;;31.45;48.37;100807.31;5094223;27;70115;-40
2023/02/17 07:02:14;;;;;;;;;;;;;;;31.48;48.48;100804.19;5076693;27;66037;-39
2023/02/17 07:04:44;;;;;;;;;;;;;;;31.52;48.24;100796.41;5076885;27;68314;-40
2023/02/17 07:07:14;;;;;;;;;;;;;;;31.54;48.07;100788.88;5096115;27;66852;-39
2023/02/17 07:09:45;;;;;;;;;;;;;;;31.59;47.85;100787.16;5090565;27;69703;-39
2023/02/17 07:12:15;;;;;;;;;;;;;;;31.64;47.77;100785.63;5083600;27;66443;-41
2023/02/17 07:14:45;;;;;;;;;;;;;;;31.66;48.01;100784.34;5088386;27;70421;-39
2023/02/17 07:17:16;;;;;;;;;;;;;;;31.70;48.05;100776.56;5090078;27;65665;-41
2023/02/17 07:19:46;;;;;;;;;;;;;;;31.73;48.08;100770.69;5087694;27;70507;-40
2023/02/17 07:22:17;;;;;;;;;;;;;;;31.77;48.01;100771.91;5089866;27;66151;-40
2023/02/17 07:24:47;;;;;;;;;;;;;;;31.80;47.75;100766.00;5083892;27;70908;-40
2023/02/17 07:27:17;;;;;;;;;;;;;;;31.85;47.77;100766.16;5091463;27;66468;-41
2023/02/17 07:29:47;;;;;;;;;;;;;;;31.90;47.59;100760.03;5084731;27;70637;-41
2023/02/17 07:32:17;;;;;;;;;;;;;;;31.93;47.39;100757.72;5073940;27;67205;-39
2023/02/17 07:34:48;;;;;;;;;;;;;;;31.97;47.28;100755.38;5093640;27;70695;-40
2023/02/17 07:37:20;;;;;;;;;;;;;;;32.00;47.57;100747.59;5077138;27;66832;-40
2023/02/17 07:39:51;;;;;;;;;;;;;;;32.05;47.66;100758.59;5086582;27;70281;-40
2023/02/17 07:42:21;;;;;;;;;;;;;;;32.11;47.22;100750.59;5071323;27;66275;-39
2023/02/17 07:44:52;;;;;;;;;;;;;;;32.15;47.25;100752.63;5086724;27;70006;-40
2023/02/17 07:47:22;;;;;;;;;;;;;;;32.20;47.11;100750.00;5094244;27;67180;-42
2023/02/17 07:49:52;;;;;;;;;;;;;;;32.23;46.94;100749.56;5093736;27;69928;-39
2023/02/17 07:52:22;;;;;;;;;;;;;;;32.29;47.02;100745.09;5067764;27;66386;-40
2023/02/17 07:54:52;;;;;;;;;;;;;;;32.32;46.95;100747.34;5095097;27;70991;-40
2023/02/17 07:57:22;;;;;;;;;;;;;;;32.35;47.09;100736.00;5070658;27;66825;-40
2023/02/17 07:59:52;;;;;;;;;;;;;;;32.39;46.78;100737.19;5075947;27;70667;-41
2023/02/17 08:02:22;;;;;;;;;;;;;;;32.43;46.69;100732.09;5077182;27;66662;-39
2023/02/17 08:04:52;;;;;;;;;;;;;;;32.49;46.61;100720.34;5083641;27;70372;-41
2023/02/17 08:07:23;;;;;;;;;;;;;;;32.54;46.54;100727.78;5096238;27;66084;-41
2023/02/17 08:15:32;;;;;;;;;;;;;;;32.69;46.30;100731.69;5079591;27;69171;-39
2023/02/17 08:18:03;;;;;;;;;;;;;;;32.73;46.43;100723.88;5091309;27;66489;-39
2023/02/17 08:20:34;;;;;;;;;;;;;;;32.79;46.08;100725.69;5090003;27;69976;-39
2023/02/17 08:23:04;;;;;;;;;;;;;;;32.83;46.05;100726.84;5074314;27;66069;-39
2023/02/17 08:25:35;;;;;;;;;;;;;;;32.87;46.07;100725.28;5080965;27;70327;-40
2023/02/17 08:28:05;;;;;;;;;;;;;;;32.91;45.97;100725.66;5079804;27;65252;-40
2023/02/17 08:30:37;;;;;;;;;;;;;;;32.95;45.83;100729.53;5071307;27;69427;-41
2023/02/17 08:33:07;;;;;;;;;;;;;;;32.98;45.96;100728.25;5096268;27;66598;-40
2023/02/17 08:35:37;;;;;;;;;;;;;;;33.02;45.61;100724.03;5094519;27;69768;-39
2023/02/17 08:38:10;;;;;;;;;;;;;;;33.06;45.78;100736.88;5083969;27;65317;-40
2023/02/17 08:40:40;;;;;;;;;;;;;;;33.09;45.55;100730.13;5091999;27;70441;-41
2023/02/17 08:43:10;;;;;;;;;;;;;;;33.11;45.62;100733.44;5097073;27;66079;-40
2023/02/17 08:45:40;;;;;;;;;;;;;;;33.12;45.78;100730.47;5092330;27;69526;-39
2023/02/17 08:48:11;;;;;;;;;;;;;;;33.17;45.57;100737.94;5073195;27;65124;-40
2023/02/17 08:50:41;;;;;;;;;;;;;;;33.19;45.56;100738.53;5098354;27;69791;-40
2023/02/17 08:53:11;;;;;;;;;;;;;;;33.21;45.61;100733.69;5084142;27;66043;-39
2023/02/17 08:55:42;;;;;;;;;;;;;;;33.23;45.60;100734.25;5089208;27;69723;-39
2023/02/17 08:58:17;;;;;;;;;;;;;;;33.25;45.54;100743.00;5096491;27;66630;-40
2023/02/17 09:00:47;;;;;;;;;;;;;;;33.27;45.35;100740.88;5097364;27;70488;-39
2023/02/17 09:03:17;;;;;;;;;;;;;;;33.29;45.69;100735.19;5091824;27;67859;-40
2023/02/17 09:05:47;;;;;;;;;;;;;;;33.31;45.34;100738.50;5090201;27;69733;-41
2023/02/17 09:08:20;;;;;;;;;;;;;;;33.33;45.39;100742.63;5096178;27;66303;-40
2023/02/17 09:10:50;;;;;;;;;;;;;;;33.36;45.51;100736.69;5092980;27;70238;-41
2023/02/17 09:13:20;;;;;;;;;;;;;;;33.38;45.60;100734.56;5095249;27;66646;-40
2023/02/17 09:15:52;;;;;;;;;;;;;;;33.43;45.60;100741.16;5087298;27;69098;-39
2023/02/17 09:18:22;;;;;;;;;;;;;;;33.41;46.70;100741.44;5094922;27;65805;-40
2023/02/17 09:20:53;;;;;;;;;;;;;;;33.08;47.69;100745.63;5096869;27;70228;-39
2023/02/17 09:23:23;;;;;;;;;;;;;;;32.96;48.44;100752.09;5095280;27;66265;-40
2023/02/17 09:26:06;;;;;;;;;;;;;;;32.82;49.34;100752.38;5100050;27;70716;-42
2023/02/17 09:28:37;;;;;;;;;;;;;;;32.74;49.78;100758.16;5096994;27;66259;-38
2023/02/17 09:31:14;;;;;;;;;;;;;;;32.69;50.26;100761.56;5098519;27;70274;-40
2023/02/17 09:33:46;;;;;;;;;;;;;;;32.67;50.69;100765.56;5100600;27;66247;-40
2023/02/17 09:36:18;;;;;;;;;;;;;;;32.64;50.71;100768.75;5095387;27;70439;-44
2023/02/17 09:38:48;;;;;;;;;;;;;;;32.62;51.27;100773.59;5099123;27;66132;-39
2023/02/17 09:41:38;;;;;;;;;;;;;;;32.58;51.39;100777.84;5095762;27;69204;-39
2023/02/17 09:44:17;;;;;;;;;;;;;;;32.55;51.83;100778.31;5096066;27;66280;-41
2023/02/17 09:46:53;;;;;;;;;;;;;;;32.55;51.73;100770.19;5097510;27;72060;-40
2023/02/17 09:49:32;;;;;;;;;;;;;;;32.77;51.49;100782.13;5090939;27;66923;-40
2023/02/17 09:52:02;;;;;;;;;;;;;;;32.93;51.09;100786.84;5090885;27;70361;-40
2023/02/17 09:54:40;;;;;;;;;;;;;;;33.05;50.74;100783.34;5090426;27;65607;-41
2023/02/17 09:57:14;;;;;;;;;;;;;;;33.12;50.46;100789.44;5090428;27;70349;-41
2023/02/17 09:59:47;;;;;;;;;;;;;;;33.06;50.09;100774.09;5094919;27;67041;-39
2023/02/17 10:02:25;;;;;;;;;;;;;;;33.23;50.19;100793.22;5095574;27;70019;-39
2023/02/17 10:05:00;;;;;;;;;;;;;;;33.24;50.21;100793.00;5095532;27;66318;-41
2023/02/17 10:07:52;;;;;;;;;;;;;;;33.00;51.18;100796.78;5091773;27;69901;-40
2023/02/17 10:10:25;;;;;;;;;;;;;;;32.79;52.51;100795.44;5088629;27;65477;-39
2023/02/17 10:12:57;;;;;;;;;;;;;;;32.66;53.50;100813.63;5092316;27;68914;-39
2023/02/17 10:15:30;;;;;;;;;;;;;;;32.57;54.24;100819.63;5071390;27;68032;-39
2023/02/17 10:18:25;;;;;;;;;;;;;;;32.54;54.27;100818.25;5095761;27;70174;-40
2023/02/17 10:20:59;;;;;;;;;;;;;;;32.51;54.22;100823.28;5094617;27;65584;-38
2023/02/17 10:23:29;;;;;;;;;;;;;;;32.52;54.05;100823.06;5096655;27;70693;-38
2023/02/17 10:26:12;;;;;;;;;;;;;;;32.49;54.09;100832.50;5096855;27;66229;-38
2023/02/17 10:28:49;;;;;;;;;;;;;;;32.51;54.33;100831.44;5077112;27;70431;-39
2023/02/17 10:31:20;;;;;;;;;;;;;;;32.49;54.81;100840.66;5085564;27;67163;-39
2023/02/17 10:34:02;;;;;;;;;;;;;;;32.46;54.66;100846.53;5088496;27;69189;-39
2023/02/17 10:36:43;;;;;;;;;;;;;;;32.43;54.96;100852.41;5090725;27;66422;-41
2023/02/17 10:39:33;;;;;;;;;;;;;;;32.44;56.03;100854.06;5087760;27;70181;-39
2023/02/17 10:42:04;;;;;;;;;;;;;;;32.42;56.77;100850.72;5082706;27;66648;-40
2023/02/17 10:44:36;;;;;;;;;;;;;;;32.41;56.85;100854.53;5088585;27;70470;-40
2023/02/17 10:47:06;;;;;;;;;;;;;;;32.39;56.86;100858.53;5091543;27;66075;-41
2023/02/17 10:49:39;;;;;;;;;;;;;;;32.36;57.39;100867.13;5091049;27;69872;-38
2023/02/17 10:52:20;;;;;;;;;;;;;;;32.38;57.34;100870.44;5086030;27;66449;-41
2023/02/17 10:55:03;;;;;;;;;;;;;;;32.35;57.45;100866.31;5092384;27;70203;-40
2023/02/17 10:57:53;;;;;;;;;;;;;;;32.35;57.41;100879.88;5093362;27;66508;-42
2023/02/17 11:00:23;;;;;;;;;;;;;;;32.33;57.41;100883.88;5096773;27;69807;-39
2023/02/17 11:02:53;;;;;;;;;;;;;;;32.32;57.42;100877.63;5072926;27;65220;-41
2023/02/17 11:05:26;;;;;;;;;;;;;;;32.30;57.62;100879.75;5082238;27;70681;-41
2023/02/17 11:08:01;;;;;;;;;;;;;;;32.28;57.95;100879.13;5089448;27;66633;-40
2023/02/17 11:10:35;;;;;;;;;;;;;;;32.26;57.83;100887.53;5083144;27;69242;-41
2023/02/17 11:13:24;;;;;;;;;;;;;;;32.29;58.05;100888.94;5089788;27;66310;-40
2023/02/17 11:15:54;;;;;;;;;;;;;;;32.43;57.02;100893.13;5090866;27;70265;-39
2023/02/17 11:18:30;;;;;;;;;;;;;;;32.55;56.76;100898.63;5089762;27;66167;-40
2023/02/17 11:21:10;;;;;;;;;;;;;;;32.63;56.53;100902.91;5085978;27;69872;-40
2023/02/17 11:23:58;;;;;;;;;;;;;;;32.68;56.45;100898.44;5089549;27;66265;-39
2023/02/17 11:26:30;;;;;;;;;;;;;;;32.73;56.12;100916.72;5083911;27;69638;-40
2023/02/17 11:29:06;;;;;;;;;;;;;;;32.75;56.11;100911.91;5097162;27;65859;-39
2023/02/17 11:31:37;;;;;;;;;;;;;;;32.75;55.91;100914.63;5085025;27;70454;-41
2023/02/17 11:34:11;;;;;;;;;;;;;;;32.78;55.64;100918.75;5090537;27;65839;-40
2023/02/17 11:36:43;;;;;;;;;;;;;;;32.78;55.46;100918.75;5094056;27;69776;-38
2023/02/17 11:39:17;;;;;;;;;;;;;;;32.77;55.39;100928.81;5093561;27;66519;-40
2023/02/17 11:41:49;;;;;;;;;;;;;;;32.78;55.18;100930.44;5081483;27;70490;-40
2023/02/17 11:44:26;;;;;;;;;;;;;;;32.79;55.29;100936.72;5089015;27;65315;-40
2023/02/17 11:47:14;;;;;;;;;;;;;;;32.79;55.02;100942.13;5092721;27;70403;-39
2023/02/17 11:49:44;;;;;;;;;;;;;;;32.77;54.91;100945.09;5089738;27;66529;-41
2023/02/17 11:52:15;;;;;;;;;;;;;;;32.75;54.88;100941.78;5096128;27;70702;-39
2023/02/17 11:55:06;;;;;;;;;;;;;;;32.74;54.87;100942.84;5096987;27;65480;-39
2023/02/17 11:57:48;;;;;;;;;;;;;;;32.71;54.79;100946.03;5094500;27;70161;-41
2023/02/17 12:00:21;;;;;;;;;;;;;;;32.70;54.81;100947.09;5095215;27;66757;-40
2023/02/17 12:03:09;;;;;;;;;;;;;;;32.69;54.64;100953.59;5096187;27;69477;-41
2023/02/17 12:05:58;;;;;;;;;;;;;;;32.68;54.89;100951.91;5096032;27;66748;-41
2023/02/17 12:08:34;;;;;;;;;;;;;;;32.67;54.76;100955.69;5096114;27;70447;-41
2023/02/17 12:11:10;;;;;;;;;;;;;;;32.66;54.74;100959.47;5095754;27;66954;-41
2023/02/17 12:14:01;;;;;;;;;;;;;;;32.65;54.90;100957.81;5056143;27;71250;-41
2023/02/17 12:16:41;;;;;;;;;;;;;;;32.62;54.73;100944.69;5070459;27;66622;-42
2023/02/17 12:19:31;;;;;;;;;;;;;;;32.59;54.83;100964.16;5095003;27;70521;-39
2023/02/17 12:22:25;;;;;;;;;;;;;;;32.58;54.99;100967.94;5060044;27;66552;-40
2023/02/17 12:25:14;;;;;;;;;;;;;;;32.57;55.15;100974.41;5077909;27;70295;-41
2023/02/17 12:28:02;;;;;;;;;;;;;;;32.36;55.67;100976.53;5074680;27;66264;-41
2023/02/17 12:30:46;;;;;;;;;;;;;;;32.20;57.49;100977.16;5083948;27;69590;-39
2023/02/17 12:33:35;;;;;;;;;;;;;;;32.09;57.85;100986.88;5087440;27;66688;-38
2023/02/17 12:36:10;;;;;;;;;;;;;;;32.01;58.28;100993.47;5087445;27;69345;-38
2023/02/17 12:38:42;;;;;;;;;;;;;;;31.95;58.68;100985.38;5090352;27;66235;-39
2023/02/17 12:41:17;;;;;;;;;;;;;;;31.91;58.81;100990.44;5091073;27;70018;-39
2023/02/17 12:43:47;;;;;;;;;;;;;;;31.84;58.94;100995.03;5090134;27;65842;-38
2023/02/17 12:46:40;;;;;;;;;;;;;;;31.81;59.01;100996.31;5092689;27;70391;-39
2023/02/17 12:49:11;;;;;;;;;;;;;;;31.79;59.34;100998.44;5087506;27;66112;-41
2023/02/17 12:51:47;;;;;;;;;;;;;;;31.78;59.68;100995.94;5096658;27;70588;-40
2023/02/17 12:54:24;;;;;;;;;;;;;;;31.77;59.17;101011.41;5098729;27;66060;-39
2023/02/17 12:57:04;;;;;;;;;;;;;;;31.76;59.09;101006.19;5081411;27;69280;-38
2023/02/17 12:59:35;;;;;;;;;;;;;;;31.75;59.53;101007.25;5082514;27;66544;-38
2023/02/17 13:02:09;;;;;;;;;;;;;;;31.74;59.55;101021.88;5097580;27;69989;-39
2023/02/17 13:04:40;;;;;;;;;;;;;;;31.71;59.72;101027.75;5089143;27;65148;-39
2023/02/17 13:07:19;;;;;;;;;;;;;;;31.70;59.83;101031.50;5095606;27;69457;-39
2023/02/17 13:09:50;;;;;;;;;;;;;;;31.68;59.57;101031.72;5095348;27;66352;-38
2023/02/17 13:12:24;;;;;;;;;;;;;;;31.67;59.84;101031.94;5097110;27;70075;-39